Time;durP1;ratioP1;P1;durP2;ratioP2;P2;SDS_P1;SDS_P2;PMS_P1;PMS_P2;Temp;Humidity;BMP_temperature;BMP_pressure;BME280_temperature;BME280_humidity;BME280_pressure;Samples;Min_cycle;Max_cycle;Signal;HPM_P1;HPM_P2
2021/11/23 00:00:49;;;;;;;75.30;39.42;;;;;;;8.76;73.05;99660.72;5006773;28;20058;-49
2021/11/23 00:03:17;;;;;;;73.57;38.20;;;;;;;8.70;73.22;99658.81;5008041;28;20018;-51
2021/11/23 00:05:43;;;;;;;69.38;37.58;;;;;;;8.86;72.85;99655.88;5008216;28;20030;-51
2021/11/23 00:08:09;;;;;;;70.32;38.00;;;;;;;8.85;72.91;99651.56;5008543;28;20060;-49
2021/11/23 00:10:35;;;;;;;76.38;37.80;;;;;;;8.83;72.28;99652.78;5011128;28;20393;-51
2021/11/23 00:13:00;;;;;;;74.95;40.38;;;;;;;8.99;72.24;99657.78;5012054;28;20488;-50
2021/11/23 00:15:26;;;;;;;77.07;39.53;;;;;;;8.78;72.89;99656.03;5012426;28;20026;-52
2021/11/23 00:17:51;;;;;;;74.30;38.13;;;;;;;8.92;72.90;99662.25;5012855;28;20025;-51
2021/11/23 00:20:17;;;;;;;72.35;36.45;;;;;;;8.68;72.13;99653.72;5012825;28;20022;-50
2021/11/23 00:22:42;;;;;;;68.22;35.25;;;;;;;8.89;71.34;99652.00;5012875;28;20025;-50
2021/11/23 00:25:08;;;;;;;60.55;33.75;;;;;;;8.89;72.43;99655.50;5012994;28;20056;-49
2021/11/23 00:27:34;;;;;;;70.95;36.22;;;;;;;9.18;71.10;99650.97;5012706;28;20223;-51
2021/11/23 00:30:01;;;;;;;63.13;34.85;;;;;;;9.00;71.28;99657.59;5012325;28;20438;-51
2021/11/23 00:32:26;;;;;;;64.43;35.38;;;;;;;8.91;71.77;99663.25;5012503;28;20025;-51
2021/11/23 00:34:52;;;;;;;67.70;36.42;;;;;;;8.68;70.90;99637.81;5012538;28;20110;-52
2021/11/23 00:37:17;;;;;;;70.05;36.65;;;;;;;8.58;71.61;99662.00;5012145;28;20026;-51
2021/11/23 00:39:44;;;;;;;72.55;37.08;;;;;;;8.92;70.68;99675.50;5011801;28;20038;-51
2021/11/23 00:42:10;;;;;;;61.42;34.40;;;;;;;8.86;71.93;99670.97;5012064;28;20171;-49
2021/11/23 00:44:35;;;;;;;64.72;33.85;;;;;;;8.81;71.91;99668.88;5012463;28;20017;-48
2021/11/23 00:47:00;;;;;;;69.05;34.85;;;;;;;8.69;72.03;99671.25;5010412;28;20405;-49
2021/11/23 00:49:26;;;;;;;62.28;34.20;;;;;;;8.78;72.44;99669.28;5012270;28;20151;-49
2021/11/23 00:51:51;;;;;;;66.15;35.47;;;;;;;8.87;72.56;99667.31;5012065;28;20507;-51
2021/11/23 00:54:17;;;;;;;74.15;35.63;;;;;;;8.97;72.23;99668.59;5010596;28;20394;-52
2021/11/23 00:56:44;;;;;;;72.13;36.70;;;;;;;8.74;72.76;99668.06;5011898;28;20154;-51
2021/11/23 00:59:09;;;;;;;89.32;42.55;;;;;;;8.84;71.78;99671.16;5010757;28;20026;-49
2021/11/23 01:01:35;;;;;;;67.10;36.45;;;;;;;8.90;72.28;99674.88;5011723;28;20546;-50
2021/11/23 01:04:00;;;;;;;65.63;35.85;;;;;;;8.83;71.85;99661.56;5011918;28;20033;-49
2021/11/23 01:06:26;;;;;;;67.28;36.35;;;;;;;8.85;72.95;99666.69;5010540;28;20025;-51
2021/11/23 01:08:51;;;;;;;67.28;36.35;;;;;;;8.73;72.54;99659.25;5010387;28;20026;-47
2021/11/23 01:11:18;;;;;;;74.60;37.03;;;;;;;8.70;73.04;99656.16;5010371;28;20026;-49
2021/11/23 01:13:43;;;;;;;70.13;36.95;;;;;;;8.69;73.16;99649.22;5011935;28;20107;-48
2021/11/23 01:16:09;;;;;;;69.57;37.75;;;;;;;8.75;73.57;99656.41;5012543;28;20446;-51
2021/11/23 01:18:34;;;;;;;69.25;37.80;;;;;;;8.79;73.17;99660.31;5012268;28;20099;-52
2021/11/23 01:21:00;;;;;;;71.63;36.97;;;;;;;8.98;73.22;99661.44;5010718;28;20032;-50
2021/11/23 01:23:26;;;;;;;74.03;37.58;;;;;;;8.86;72.41;99655.88;5012337;28;20065;-52
2021/11/23 01:25:52;;;;;;;70.53;37.63;;;;;;;9.02;72.46;99659.22;5011627;28;20375;-49
2021/11/23 01:28:18;;;;;;;74.68;37.72;;;;;;;8.87;73.43;99665.50;5011937;28;20357;-49
2021/11/23 01:30:43;;;;;;;73.20;36.72;;;;;;;8.92;73.40;99663.06;5011653;28;20096;-51
2021/11/23 01:33:09;;;;;;;73.22;37.45;;;;;;;8.69;73.14;99659.84;5011886;28;20041;-48
2021/11/23 01:35:34;;;;;;;79.47;36.72;;;;;;;8.77;73.21;99668.47;5011588;28;20030;-48
2021/11/23 01:38:00;;;;;;;76.47;37.50;;;;;;;8.91;73.68;99664.09;5011633;28;20032;-48
2021/11/23 01:40:25;;;;;;;71.45;38.30;;;;;;;9.26;71.87;99656.09;5011179;28;20038;-50
2021/11/23 01:42:51;;;;;;;67.15;36.40;;;;;;;8.97;72.10;99655.34;5010829;28;20445;-48
2021/11/23 01:45:16;;;;;;;67.47;36.38;;;;;;;8.94;73.26;99663.66;5011209;28;20072;-50
2021/11/23 01:47:42;;;;;;;72.70;37.88;;;;;;;8.93;73.01;99647.94;5011489;28;20066;-49
2021/11/23 01:50:09;;;;;;;73.78;36.70;;;;;;;8.97;72.39;99655.34;5011322;28;20022;-49
2021/11/23 01:52:35;;;;;;;76.80;37.90;;;;;;;8.92;72.18;99655.09;5010776;28;20061;-50
2021/11/23 01:55:02;;;;;;;68.88;37.05;;;;;;;8.95;72.08;99659.22;5011009;28;20080;-51
2021/11/23 01:57:27;;;;;;;69.45;36.75;;;;;;;8.87;72.39;99656.69;5009825;28;20136;-49
2021/11/23 01:59:53;;;;;;;73.07;37.17;;;;;;;8.37;73.43;99656.69;5010835;28;20358;-48
2021/11/23 02:02:18;;;;;;;68.00;36.30;;;;;;;8.50;74.87;99661.31;5011354;28;20041;-49
2021/11/23 02:04:45;;;;;;;66.95;36.00;;;;;;;8.86;73.63;99660.38;5011033;28;20037;-51
2021/11/23 02:07:13;;;;;;;66.47;35.25;;;;;;;8.81;73.27;99660.94;5011123;28;20029;-50
2021/11/23 02:09:38;;;;;;;76.68;37.85;;;;;;;8.52;73.52;99664.59;5010134;28;20056;-48
2021/11/23 02:12:04;;;;;;;77.95;38.60;;;;;;;8.52;74.28;99672.56;5011152;28;20072;-49
2021/11/23 02:14:30;;;;;;;75.10;38.83;;;;;;;8.59;73.24;99670.78;5009594;28;20130;-49
2021/11/23 02:16:55;;;;;;;70.25;36.28;;;;;;;8.70;73.24;99675.56;5009244;28;20022;-50
2021/11/23 02:19:21;;;;;;;71.95;37.72;;;;;;;8.78;73.94;99677.25;5011077;28;20026;-49
2021/11/23 02:21:47;;;;;;;68.50;35.58;;;;;;;9.11;72.21;99677.47;5010788;28;20022;-51
2021/11/23 02:24:12;;;;;;;69.30;35.25;;;;;;;8.88;73.16;99675.06;5010799;28;20026;-49
2021/11/23 02:26:38;;;;;;;67.68;35.50;;;;;;;8.70;73.01;99664.97;5009674;28;20032;-49
2021/11/23 02:29:03;;;;;;;69.60;36.13;;;;;;;8.46;73.76;99671.50;5010768;28;20179;-49
2021/11/23 02:31:29;;;;;;;66.78;34.72;;;;;;;8.45;74.09;99664.53;5011083;28;20666;-48
2021/11/23 02:33:54;;;;;;;69.38;35.78;;;;;;;8.54;73.49;99660.75;5010632;28;20479;-48
2021/11/23 02:36:20;;;;;;;66.22;34.80;;;;;;;8.83;73.15;99666.06;5011092;28;20367;-48
2021/11/23 02:38:48;;;;;;;59.13;33.45;;;;;;;8.44;74.17;99667.41;5010946;28;20522;-48
2021/11/23 02:41:14;;;;;;;64.72;33.70;;;;;;;8.44;73.95;99668.22;5011048;28;20088;-50
2021/11/23 02:43:40;;;;;;;67.15;34.63;;;;;;;8.50;74.68;99671.94;5010664;28;20057;-48
2021/11/23 02:46:06;;;;;;;68.35;34.08;;;;;;;8.48;74.34;99673.97;5010454;28;20025;-49
2021/11/23 02:48:32;;;;;;;63.78;34.97;;;;;;;8.75;73.45;99674.97;5010869;28;20103;-48
2021/11/23 02:53:29;;;;;;;62.78;34.15;;;;;;;8.37;73.42;99675.25;5009863;28;20093;-49
2021/11/23 02:55:54;;;;;;;63.03;35.47;;;;;;;8.67;72.17;99675.13;5010413;28;20100;-48
2021/11/23 02:58:21;;;;;;;69.43;34.25;;;;;;;8.24;73.35;99670.66;5010183;28;20033;-49
2021/11/23 03:00:46;;;;;;;64.80;33.35;;;;;;;8.35;73.33;99667.47;5010456;28;20112;-48
2021/11/23 03:03:12;;;;;;;62.28;33.40;;;;;;;8.18;74.34;99666.09;5010330;28;20143;-48
2021/11/23 03:05:39;;;;;;;60.20;33.38;;;;;;;8.16;74.71;99668.13;5010168;28;20025;-51
2021/11/23 03:08:05;;;;;;;54.55;32.55;;;;;;;7.89;75.17;99669.69;5010558;28;20038;-48
2021/11/23 03:10:31;;;;;;;57.50;32.05;;;;;;;8.21;74.34;99668.38;5010641;28;20022;-51
2021/11/23 03:12:56;;;;;;;57.40;32.97;;;;;;;8.20;74.41;99672.03;5010525;28;20116;-50
2021/11/23 03:15:22;;;;;;;61.55;32.90;;;;;;;8.14;74.50;99660.34;5010612;28;20323;-48
2021/11/23 03:17:47;;;;;;;60.47;32.22;;;;;;;8.31;74.51;99665.41;5010471;28;20021;-48
2021/11/23 03:20:17;;;;;;;57.85;32.15;;;;;;;8.42;74.29;99662.28;5010113;28;20339;-50
2021/11/23 03:22:43;;;;;;;57.35;31.95;;;;;;;8.47;73.97;99672.31;5010359;28;20021;-52
2021/11/23 03:25:08;;;;;;;61.25;32.28;;;;;;;8.01;74.13;99639.03;5010368;28;20520;-49
2021/11/23 03:27:34;;;;;;;56.15;31.65;;;;;;;7.96;74.58;99673.25;5009627;28;20389;-49
2021/11/23 03:30:00;;;;;;;57.10;31.83;;;;;;;7.99;74.75;99670.19;5009169;28;20021;-48
2021/11/23 03:32:26;;;;;;;54.80;31.48;;;;;;;7.69;75.49;99653.56;5009550;28;20094;-51
2021/11/23 03:34:51;;;;;;;58.47;31.90;;;;;;;7.95;74.69;99666.28;5009250;28;20071;-48
2021/11/23 03:37:20;;;;;;;56.67;31.20;;;;;;;7.82;75.63;99665.16;5009768;28;20030;-49
2021/11/23 03:39:46;;;;;;;58.70;32.13;;;;;;;7.97;74.78;99669.56;5008789;28;20052;-47
2021/11/23 03:42:12;;;;;;;64.20;32.92;;;;;;;7.98;74.39;99679.19;5008124;28;20041;-47
2021/11/23 03:44:37;;;;;;;61.42;32.03;;;;;;;7.87;75.18;99672.53;5010648;28;20033;-47
2021/11/23 03:47:06;;;;;;;57.92;32.05;;;;;;;8.01;75.34;99671.69;5013368;28;20092;-48
2021/11/23 03:49:32;;;;;;;60.08;32.95;;;;;;;8.11;75.31;99668.72;5013887;28;20033;-47
2021/11/23 03:51:57;;;;;;;60.28;31.58;;;;;;;7.84;75.93;99672.91;5012195;28;20026;-48
2021/11/23 03:54:23;;;;;;;56.95;31.00;;;;;;;7.98;76.25;99676.53;5013581;28;20390;-47
2021/11/23 03:56:49;;;;;;;61.33;32.95;;;;;;;7.94;75.55;99676.06;5014108;28;20054;-50
2021/11/23 03:59:14;;;;;;;58.35;32.13;;;;;;;7.88;75.95;99668.03;5013972;28;20415;-50
2021/11/23 04:01:41;;;;;;;59.50;32.50;;;;;;;8.03;75.66;99663.50;5013483;28;20033;-50
2021/11/23 04:04:06;;;;;;;59.10;31.65;;;;;;;8.18;74.52;99661.63;5012956;28;20454;-48
2021/11/23 04:06:32;;;;;;;63.17;33.40;;;;;;;8.13;75.40;99658.75;5013696;28;20029;-47
2021/11/23 04:08:57;;;;;;;65.75;34.25;;;;;;;8.11;75.12;99657.25;5013573;28;20030;-48
2021/11/23 04:11:23;;;;;;;57.75;32.75;;;;;;;8.09;75.66;99659.28;5013924;28;20397;-48
2021/11/23 04:13:48;;;;;;;62.78;32.80;;;;;;;8.13;75.29;99658.75;5013514;28;20482;-48
2021/11/23 04:16:14;;;;;;;58.95;32.30;;;;;;;8.12;75.71;99662.38;5013680;28;20160;-48
2021/11/23 04:18:40;;;;;;;65.15;33.72;;;;;;;8.07;75.83;99658.66;5013675;28;20033;-47
2021/11/23 04:21:05;;;;;;;60.70;32.50;;;;;;;8.04;75.28;99662.53;5013279;28;20025;-49
2021/11/23 04:23:31;;;;;;;59.85;32.90;;;;;;;7.84;75.23;99670.25;5013359;28;20037;-48
2021/11/23 04:25:56;;;;;;;61.85;35.08;;;;;;;7.97;75.73;99677.53;5013165;28;20030;-48
2021/11/23 04:28:22;;;;;;;59.05;32.95;;;;;;;8.25;74.55;99671.50;5013196;28;20156;-48
2021/11/23 04:30:47;;;;;;;62.40;32.70;;;;;;;8.16;74.43;99670.78;5012809;28;20327;-47
2021/11/23 04:33:16;;;;;;;64.05;33.35;;;;;;;8.23;74.36;99677.78;5013127;28;20026;-47
2021/11/23 04:35:42;;;;;;;67.22;33.72;;;;;;;8.00;74.70;99677.16;5012868;28;20026;-47
2021/11/23 04:38:08;;;;;;;60.05;32.65;;;;;;;8.18;74.08;99674.06;5013276;28;20234;-47
2021/11/23 04:40:33;;;;;;;60.00;33.15;;;;;;;7.71;76.09;99681.53;5012679;28;20021;-49
2021/11/23 04:42:59;;;;;;;58.00;33.88;;;;;;;7.99;75.97;99683.44;5012711;28;20053;-47
2021/11/23 04:45:24;;;;;;;62.90;33.40;;;;;;;8.32;74.78;99685.59;5012678;28;20038;-48
2021/11/23 04:47:50;;;;;;;59.33;32.05;;;;;;;8.30;74.96;99682.31;5012940;28;20084;-47
2021/11/23 04:50:15;;;;;;;66.35;32.55;;;;;;;8.23;74.85;99677.78;5012415;28;20034;-48
2021/11/23 04:52:41;;;;;;;55.28;32.13;;;;;;;8.18;74.92;99680.19;5012735;28;20030;-48
2021/11/23 04:55:07;;;;;;;64.40;32.38;;;;;;;8.09;75.98;99686.63;5012339;28;20088;-50
2021/11/23 04:57:33;;;;;;;60.83;32.83;;;;;;;8.03;75.71;99690.00;5012786;28;20112;-48
2021/11/23 05:00:00;;;;;;;62.85;33.15;;;;;;;8.26;74.90;99691.66;5012743;28;20461;-50
2021/11/23 05:02:25;;;;;;;59.90;33.55;;;;;;;8.44;74.13;99688.63;5012766;28;20057;-48
2021/11/23 05:04:51;;;;;;;61.60;33.95;;;;;;;8.48;74.00;99696.00;5012371;28;20156;-50
2021/11/23 05:07:16;;;;;;;63.60;32.92;;;;;;;8.34;74.58;99700.31;5012167;28;20033;-49
2021/11/23 05:09:41;;;;;;;61.67;33.47;;;;;;;8.21;75.24;99690.41;5011823;28;20022;-49
2021/11/23 05:12:07;;;;;;;64.35;33.78;;;;;;;8.15;74.29;99667.31;5011611;28;20038;-49
2021/11/23 05:14:33;;;;;;;64.07;34.20;;;;;;;8.38;73.53;99703.44;5011622;28;20036;-48
2021/11/23 05:16:58;;;;;;;61.47;33.40;;;;;;;8.22;74.04;99700.03;5012063;28;20037;-49
2021/11/23 05:19:23;;;;;;;69.30;34.13;;;;;;;8.12;74.02;99698.69;5011750;28;20038;-48
2021/11/23 05:21:49;;;;;;;69.28;34.08;;;;;;;8.02;74.28;99707.75;5011385;28;20045;-49
2021/11/23 05:24:14;;;;;;;64.70;34.88;;;;;;;7.82;75.59;99707.56;5011407;28;20454;-50
2021/11/23 05:26:40;;;;;;;67.00;34.70;;;;;;;7.71;76.09;99713.31;5010998;28;20115;-51
2021/11/23 05:29:06;;;;;;;70.53;36.50;;;;;;;7.74;76.28;99707.63;5009845;28;20386;-50
2021/11/23 05:31:31;;;;;;;72.10;35.60;;;;;;;7.80;76.58;99714.03;5010379;28;20125;-48
2021/11/23 05:33:57;;;;;;;68.10;34.80;;;;;;;7.85;76.07;99710.84;5011382;28;20029;-48
2021/11/23 05:36:22;;;;;;;66.78;35.55;;;;;;;7.82;76.41;99712.84;5009681;28;20030;-50
2021/11/23 05:38:48;;;;;;;67.78;34.00;;;;;;;7.61;76.58;99713.59;5010787;28;20462;-50
2021/11/23 05:41:13;;;;;;;65.55;34.63;;;;;;;7.57;77.45;99717.63;5010653;28;20354;-49
2021/11/23 05:43:39;;;;;;;62.58;34.95;;;;;;;7.63;77.27;99719.53;5009618;28;20037;-50
2021/11/23 05:46:04;;;;;;;65.78;35.63;;;;;;;7.82;78.64;99718.16;5011100;28;20493;-51
2021/11/23 05:48:31;;;;;;;69.32;35.45;;;;;;;7.91;78.36;99723.31;5010853;28;20030;-48
2021/11/23 05:51:02;;;;;;;66.20;35.92;;;;;;;8.09;77.61;99721.09;5011183;28;20478;-49
2021/11/23 05:53:28;;;;;;;63.90;35.08;;;;;;;8.07;77.25;99727.56;5010642;28;20091;-49
2021/11/23 05:55:53;;;;;;;70.20;34.28;;;;;;;8.25;76.43;99732.47;5010518;28;20065;-50
2021/11/23 05:58:19;;;;;;;67.15;33.58;;;;;;;8.28;76.44;99735.56;5010485;28;20420;-48
2021/11/23 06:00:44;;;;;;;64.25;34.90;;;;;;;8.31;77.29;99737.81;5010528;28;20018;-52
2021/11/23 06:03:10;;;;;;;58.92;31.20;;;;;;;8.41;76.95;99742.81;5008569;28;20042;-50
2021/11/23 06:05:35;;;;;;;59.33;31.80;;;;;;;8.36;76.06;99743.38;5010062;28;20068;-50
2021/11/23 06:08:00;;;;;;;54.05;29.95;;;;;;;8.36;76.70;99747.88;5009797;28;20418;-49
2021/11/23 06:10:26;;;;;;;49.38;28.58;;;;;;;8.54;74.90;99742.16;5010719;28;20026;-51
2021/11/23 06:12:51;;;;;;;57.03;27.83;;;;;;;8.65;74.77;99751.44;5009047;28;20092;-50
2021/11/23 06:15:18;;;;;;;50.55;27.75;;;;;;;8.61;74.75;99753.66;5010607;28;20053;-51
2021/11/23 06:17:44;;;;;;;50.13;26.90;;;;;;;8.64;76.12;99744.47;5008423;28;20095;-51
2021/11/23 06:20:10;;;;;;;49.15;27.38;;;;;;;8.75;75.91;99755.38;5004307;28;20029;-52
2021/11/23 06:22:35;;;;;;;45.33;27.40;;;;;;;8.92;75.39;99758.59;4995058;28;20037;-51
2021/11/23 06:25:02;;;;;;;48.53;28.20;;;;;;;9.16;74.42;99761.84;5007563;28;20053;-50
2021/11/23 06:27:27;;;;;;;50.10;28.67;;;;;;;9.25;72.75;99771.28;5009648;28;20029;-48
2021/11/23 06:29:53;;;;;;;52.42;27.10;;;;;;;9.09;72.66;99772.41;5002039;28;20034;-49
2021/11/23 06:32:18;;;;;;;58.00;28.27;;;;;;;9.09;72.62;99782.22;5010072;28;20034;-47
2021/11/23 06:34:44;;;;;;;53.30;28.55;;;;;;;8.98;73.50;99781.72;5010456;28;20446;-51
2021/11/23 06:37:09;;;;;;;44.25;26.00;;;;;;;8.97;73.31;99777.44;5010225;28;20021;-51
2021/11/23 06:39:34;;;;;;;44.38;24.67;;;;;;;8.97;73.31;99782.72;5009420;28;20021;-48
2021/11/23 06:42:00;;;;;;;42.60;23.75;;;;;;;9.19;74.38;99782.69;5009078;28;20036;-51
2021/11/23 06:44:25;;;;;;;44.00;22.48;;;;;;;9.31;74.64;99783.81;5009256;28;20029;-49
2021/11/23 06:46:51;;;;;;;40.08;22.20;;;;;;;9.72;73.29;99787.50;5008687;28;20030;-49
2021/11/23 06:49:16;;;;;;;39.97;22.83;;;;;;;10.03;71.97;99786.22;5008923;28;20033;-51
2021/11/23 06:51:42;;;;;;;43.70;22.83;;;;;;;10.05;70.84;99793.00;5009283;28;20080;-50
2021/11/23 06:54:07;;;;;;;35.50;19.58;;;;;;;10.17;69.58;99794.03;5007519;28;20461;-54
2021/11/23 06:56:33;;;;;;;37.47;19.98;;;;;;;10.32;70.05;99796.59;5008619;28;20112;-50
2021/11/23 06:59:00;;;;;;;32.70;19.65;;;;;;;10.40;69.64;99802.75;5008856;28;20101;-52
2021/11/23 07:01:26;;;;;;;34.40;19.27;;;;;;;10.48;68.83;99800.72;5008729;28;20033;-48
2021/11/23 07:03:51;;;;;;;35.22;21.05;;;;;;;10.65;68.42;99795.81;5007904;28;20080;-50
2021/11/23 07:06:17;;;;;;;37.90;20.58;;;;;;;10.59;67.84;99809.13;5008307;28;20609;-49
2021/11/23 07:08:42;;;;;;;33.30;20.70;;;;;;;10.72;68.06;99806.50;5009890;28;20022;-52
2021/11/23 07:11:08;;;;;;;36.80;20.23;;;;;;;10.96;66.33;99813.06;5007284;28;20029;-49
2021/11/23 07:13:34;;;;;;;35.67;20.77;;;;;;;10.94;66.37;99812.44;5008793;28;20066;-48
2021/11/23 07:16:00;;;;;;;39.05;21.90;;;;;;;11.08;66.44;99810.59;5006999;28;20026;-50
2021/11/23 07:18:25;;;;;;;41.03;22.23;;;;;;;11.03;66.73;99810.41;5008101;28;20022;-51
2021/11/23 07:20:51;;;;;;;37.67;22.67;;;;;;;10.85;66.58;99811.00;5008497;28;20543;-48
2021/11/23 07:23:16;;;;;;;45.28;23.92;;;;;;;10.81;66.67;99810.56;5008906;28;20026;-49
2021/11/23 07:25:42;;;;;;;35.92;22.20;;;;;;;10.92;67.07;99811.81;5008193;28;20030;-51
2021/11/23 07:28:07;;;;;;;38.72;22.40;;;;;;;10.90;67.47;99816.53;5010001;28;20346;-51
2021/11/23 07:30:33;;;;;;;37.55;21.77;;;;;;;11.13;65.78;99811.63;5009935;28;20022;-50
2021/11/23 07:32:58;;;;;;;37.65;22.02;;;;;;;11.16;65.13;99821.06;5009492;28;20411;-48
2021/11/23 07:35:24;;;;;;;40.08;22.85;;;;;;;11.02;65.32;99798.91;5009231;28;20092;-48
2021/11/23 07:37:49;;;;;;;39.08;23.23;;;;;;;11.07;65.89;99822.28;5009357;28;20402;-50
2021/11/23 07:40:15;;;;;;;41.70;23.88;;;;;;;11.12;65.62;99828.63;5009023;28;20453;-49
2021/11/23 07:42:41;;;;;;;41.17;23.38;;;;;;;11.15;66.25;99832.72;5007918;28;20142;-50
2021/11/23 07:45:07;;;;;;;41.78;23.23;;;;;;;11.27;65.62;99831.09;5009762;28;20034;-49
2021/11/23 07:47:32;;;;;;;45.30;23.85;;;;;;;11.36;64.91;99837.03;5010002;28;20508;-49
2021/11/23 07:49:58;;;;;;;42.72;24.30;;;;;;;11.52;63.80;99843.78;5009307;28;20018;-50
2021/11/23 07:52:23;;;;;;;48.08;24.15;;;;;;;11.62;64.63;99843.38;5009519;28;20438;-48
2021/11/23 07:54:49;;;;;;;43.13;23.10;;;;;;;11.49;64.28;99850.34;5008945;28;20045;-48
2021/11/23 07:57:14;;;;;;;39.80;23.38;;;;;;;11.52;64.51;99862.44;5008796;28;20034;-51
2021/11/23 07:59:40;;;;;;;40.10;24.00;;;;;;;11.64;64.06;99855.44;5009056;28;20152;-49
2021/11/23 08:02:05;;;;;;;40.13;22.90;;;;;;;11.49;65.57;99865.50;5007660;28;20022;-50
2021/11/23 08:04:31;;;;;;;40.10;22.42;;;;;;;11.46;65.58;99863.25;5009051;28;20025;-49
2021/11/23 08:06:56;;;;;;;37.05;22.50;;;;;;;11.51;65.85;99864.28;5009412;28;20026;-49
2021/11/23 08:09:22;;;;;;;44.45;23.08;;;;;;;11.61;64.93;99853.19;5009500;28;20700;-51
2021/11/23 08:11:47;;;;;;;42.17;24.02;;;;;;;11.52;66.07;99857.94;5009107;28;20053;-48
2021/11/23 08:14:13;;;;;;;41.75;22.98;;;;;;;11.71;65.91;99863.44;5009296;28;20034;-49
2021/11/23 08:16:38;;;;;;;40.45;23.95;;;;;;;11.51;68.14;99860.78;5009143;28;20037;-49
2021/11/23 08:19:04;;;;;;;39.88;23.42;;;;;;;11.49;68.66;99860.19;5009160;28;20467;-53
2021/11/23 08:21:30;;;;;;;40.15;24.35;;;;;;;11.45;68.87;99854.44;5007799;28;20030;-52
2021/11/23 08:23:56;;;;;;;42.53;23.80;;;;;;;11.38;68.76;99850.94;5008535;28;20413;-52
2021/11/23 08:26:23;;;;;;;41.83;23.90;;;;;;;11.55;69.00;99851.34;5008919;28;20417;-52
2021/11/23 08:28:48;;;;;;;44.47;24.20;;;;;;;11.45;68.16;99850.97;5009227;28;20040;-50
2021/11/23 08:31:14;;;;;;;44.28;23.63;;;;;;;11.58;68.31;99850.94;5011129;28;20018;-51
2021/11/23 08:33:41;;;;;;;42.65;23.58;;;;;;;11.66;68.31;99850.72;5012857;28;20440;-49
2021/11/23 08:36:07;;;;;;;46.13;23.15;;;;;;;11.59;68.81;99847.25;5013012;28;20030;-51
2021/11/23 08:38:32;;;;;;;39.83;22.48;;;;;;;11.44;69.85;99851.97;5012928;28;20045;-51
2021/11/23 08:40:58;;;;;;;37.70;22.70;;;;;;;11.42;70.21;99848.69;5012486;28;20029;-52
2021/11/23 08:43:23;;;;;;;37.60;21.85;;;;;;;11.49;70.04;99858.31;5012734;28;20437;-50
2021/11/23 08:45:49;;;;;;;38.60;21.88;;;;;;;11.34;69.73;99861.19;5012357;28;20679;-51
2021/11/23 08:48:15;;;;;;;37.10;21.73;;;;;;;11.40;70.10;99854.22;5012321;28;20121;-50
2021/11/23 08:50:40;;;;;;;36.88;21.42;;;;;;;11.66;68.72;99856.06;5011951;28;20355;-49
2021/11/23 08:53:09;;;;;;;34.33;21.00;;;;;;;11.54;68.33;99857.72;5012635;28;20029;-50
2021/11/23 08:55:37;;;;;;;37.53;21.65;;;;;;;11.76;67.66;99860.94;5012047;28;20540;-49
2021/11/23 08:58:04;;;;;;;38.53;21.60;;;;;;;11.72;67.51;99863.22;5012238;28;20438;-51
2021/11/23 09:00:29;;;;;;;38.97;21.75;;;;;;;11.58;67.73;99860.78;5012614;28;20041;-49
2021/11/23 09:02:58;;;;;;;37.25;21.05;;;;;;;11.43;67.38;99837.03;5012610;28;20034;-51
2021/11/23 09:05:23;;;;;;;38.63;21.80;;;;;;;11.59;68.17;99860.56;5011135;28;20030;-50
2021/11/23 09:07:49;;;;;;;40.10;22.27;;;;;;;11.38;68.29;99855.47;5012339;28;20045;-52
2021/11/23 09:10:20;;;;;;;38.50;22.42;;;;;;;11.26;68.88;99858.75;5012411;28;20022;-50
2021/11/23 09:12:46;;;;;;;36.38;22.63;;;;;;;11.27;69.71;99860.41;5012358;28;20088;-52
2021/11/23 09:15:12;;;;;;;37.33;22.42;;;;;;;11.15;69.44;99864.69;5012317;28;20054;-52
2021/11/23 09:17:37;;;;;;;39.15;23.08;;;;;;;11.24;69.44;99860.00;5012242;28;20425;-49
2021/11/23 09:20:04;;;;;;;42.42;24.83;;;;;;;11.24;69.77;99863.47;5012042;28;20061;-50
2021/11/23 09:22:30;;;;;;;40.55;24.23;;;;;;;11.22;70.50;99862.84;5011715;28;20036;-52
2021/11/23 09:24:56;;;;;;;41.22;24.02;;;;;;;11.23;69.61;99863.66;5011719;28;20029;-51
2021/11/23 09:27:21;;;;;;;40.63;24.17;;;;;;;11.13;70.07;99862.22;5011921;28;20406;-51
2021/11/23 09:29:47;;;;;;;43.65;23.85;;;;;;;11.37;70.36;99870.66;5011744;28;20426;-52
2021/11/23 09:32:13;;;;;;;41.83;24.10;;;;;;;11.43;69.15;99859.16;5011596;28;20022;-49
2021/11/23 09:34:39;;;;;;;46.83;24.45;;;;;;;11.38;70.43;99855.47;5011879;28;20129;-48
2021/11/23 09:37:04;;;;;;;44.08;24.33;;;;;;;11.36;70.79;99863.66;5011792;28;20057;-51
2021/11/23 09:39:30;;;;;;;41.45;23.60;;;;;;;11.35;70.23;99851.38;5011668;28;20065;-52
2021/11/23 09:41:55;;;;;;;44.67;24.33;;;;;;;11.48;70.27;99853.19;5010448;28;20053;-48
2021/11/23 09:44:21;;;;;;;42.17;23.92;;;;;;;11.57;70.28;99849.28;5011617;28;20026;-52
2021/11/23 09:46:46;;;;;;;39.25;22.80;;;;;;;11.65;70.52;99851.75;5010798;28;20433;-49
2021/11/23 09:49:12;;;;;;;37.35;22.38;;;;;;;11.87;69.29;99849.66;5011170;28;20358;-52
2021/11/23 09:51:37;;;;;;;34.72;20.05;;;;;;;11.64;69.11;99849.31;5010101;28;20030;-51
2021/11/23 09:54:05;;;;;;;35.72;21.75;;;;;;;11.84;68.85;99858.09;5011001;28;20512;-49
2021/11/23 09:56:30;;;;;;;39.42;20.95;;;;;;;11.73;68.60;99843.53;5009053;28;20311;-48
2021/11/23 09:58:56;;;;;;;37.50;21.90;;;;;;;11.82;68.96;99848.63;5010928;28;20026;-53
2021/11/23 10:01:27;;;;;;;39.25;22.15;;;;;;;11.92;68.77;99857.06;5010624;28;20049;-50
2021/11/23 10:03:53;;;;;;;36.40;22.48;;;;;;;12.09;68.77;99844.91;5011084;28;20025;-51
2021/11/23 10:06:21;;;;;;;38.85;21.63;;;;;;;12.06;67.46;99839.97;5011093;28;20025;-52
2021/11/23 10:08:48;;;;;;;42.20;22.73;;;;;;;12.18;67.74;99836.66;5011032;28;20045;-51
2021/11/23 10:11:31;;;;;;;38.22;22.92;;;;;;;12.11;68.88;99840.19;5009596;28;20077;-48
2021/11/23 10:13:59;;;;;;;45.17;25.00;;;;;;;12.10;68.22;99837.72;5010570;28;20187;-51
2021/11/23 10:16:25;;;;;;;40.65;24.88;;;;;;;12.33;68.21;99835.34;5010541;28;20418;-51
2021/11/23 10:18:51;;;;;;;42.65;24.98;;;;;;;12.17;68.68;99837.72;5009080;28;20054;-50
2021/11/23 10:21:19;;;;;;;42.38;24.27;;;;;;;12.20;68.15;99843.41;5010499;28;20505;-50
2021/11/23 10:23:47;;;;;;;43.58;24.65;;;;;;;12.44;68.09;99844.53;5010651;28;20029;-51
2021/11/23 10:26:25;;;;;;;42.75;24.85;;;;;;;12.51;67.42;99845.34;5010037;28;20033;-50
2021/11/23 10:28:53;;;;;;;43.65;23.20;;;;;;;12.43;67.89;99842.06;4995315;28;20083;-49
2021/11/23 10:31:19;;;;;;;43.42;22.98;;;;;;;12.46;67.94;99839.81;5010176;28;20108;-50
2021/11/23 10:33:44;;;;;;;40.05;22.90;;;;;;;12.46;67.51;99839.00;5009907;28;20163;-50
2021/11/23 10:36:14;;;;;;;39.63;22.80;;;;;;;12.64;67.00;99838.28;5010524;28;20393;-51
2021/11/23 10:38:40;;;;;;;37.35;22.58;;;;;;;12.79;66.93;99836.13;5010194;28;20121;-51
2021/11/23 10:41:07;;;;;;;36.72;21.73;;;;;;;12.65;67.28;99839.91;5009844;28;20105;-51
2021/11/23 10:43:33;;;;;;;36.03;21.42;;;;;;;12.81;66.99;99831.41;5010567;28;20026;-51
2021/11/23 10:45:58;;;;;;;39.63;21.33;;;;;;;12.75;67.05;99839.44;5010201;28;20021;-48
2021/11/23 10:48:26;;;;;;;35.47;21.85;;;;;;;12.86;66.92;99836.09;5010075;28;20476;-50
2021/11/23 10:51:09;;;;;;;38.30;24.38;;;;;;;13.04;66.68;99829.97;5010014;28;20026;-48
2021/11/23 10:53:35;;;;;;;40.95;24.40;;;;;;;13.09;66.32;99835.50;5009774;28;20072;-48
2021/11/23 10:56:09;;;;;;;32.08;20.23;;;;;;;13.09;67.00;99825.63;5009880;28;20085;-50
2021/11/23 10:58:34;;;;;;;31.38;19.85;;;;;;;13.36;66.18;99819.28;5009788;28;20038;-49
2021/11/23 11:01:00;;;;;;;53.65;31.77;;;;;;;13.24;66.75;99827.16;5009714;28;20026;-49
2021/11/23 11:03:28;;;;;;;31.75;20.30;;;;;;;13.21;67.31;99835.59;5010322;28;20062;-49
2021/11/23 11:05:54;;;;;;;32.78;18.40;;;;;;;13.25;66.60;99829.63;5010303;28;20064;-49
2021/11/23 11:08:23;;;;;;;28.70;17.33;;;;;;;13.20;67.86;99828.66;5009628;28;20026;-48
2021/11/23 11:10:48;;;;;;;32.05;16.77;;;;;;;13.47;67.24;99824.72;4988771;28;20080;-47
2021/11/23 11:13:16;;;;;;;29.80;17.13;;;;;;;13.39;67.27;99821.53;4997209;28;20037;-48
2021/11/23 11:15:48;;;;;;;27.10;16.60;;;;;;;13.45;67.49;99834.00;4988565;28;20106;-50
2021/11/23 11:18:16;;;;;;;25.83;16.10;;;;;;;13.50;67.18;99831.50;5005425;28;20080;-51